Time;durP1;ratioP1;P1;durP2;ratioP2;P2;SDS_P1;SDS_P2;PMS_P1;PMS_P2;Temp;Humidity;BMP_temperature;BMP_pressure;BME280_temperature;BME280_humidity;BME280_pressure;Samples;Min_cycle;Max_cycle;Signal;HPM_P1;HPM_P2
2022/01/16 00:04:09;;;;;;;41.13;15.32;;;;;;;-1.27;98.66;96436.19;5010798;28;20053;-51
2022/01/16 00:06:38;;;;;;;41.33;15.63;;;;;;;-1.75;100.00;96398.63;5003781;28;20590;-48
2022/01/16 00:09:05;;;;;;;38.47;16.48;;;;;;;-1.84;100.00;96384.16;5002315;28;20507;-46
2022/01/16 00:11:33;;;;;;;38.50;15.77;;;;;;;-1.40;100.00;96405.47;5011475;28;20621;-46
2022/01/16 00:13:59;;;;;;;37.10;15.32;;;;;;;-1.27;100.00;96415.78;4991898;28;20385;-47
2022/01/16 00:16:26;;;;;;;40.67;16.08;;;;;;;-1.28;100.00;96392.91;4998208;28;20129;-47
2022/01/16 00:18:53;;;;;;;39.10;14.75;;;;;;;-1.55;100.00;96395.47;5002138;28;20042;-46
2022/01/16 00:21:26;;;;;;;41.50;17.02;;;;;;;-1.54;100.00;96383.00;4997229;28;20054;-46
2022/01/16 00:23:54;;;;;;;40.83;15.02;;;;;;;-1.74;100.00;96380.88;5009927;28;20038;-49
2022/01/16 00:26:22;;;;;;;39.00;16.20;;;;;;;-1.40;100.00;96381.59;5008981;28;20504;-46
2022/01/16 00:28:50;;;;;;;36.78;14.95;;;;;;;-1.33;100.00;96347.75;5005652;28;20396;-48
2022/01/16 00:31:19;;;;;;;40.42;16.23;;;;;;;-0.67;99.79;96349.53;5001177;28;20038;-45
2022/01/16 00:33:46;;;;;;;37.42;15.70;;;;;;;-0.87;99.78;96363.41;5013174;28;20079;-45
2022/01/16 00:36:17;;;;;;;45.42;16.00;;;;;;;-1.47;100.00;96387.09;4992683;28;20042;-47
2022/01/16 00:38:49;;;;;;;38.88;15.23;;;;;;;-1.41;100.00;96380.00;5000636;28;20496;-48
2022/01/16 00:41:18;;;;;;;42.85;17.10;;;;;;;-0.77;97.35;96377.59;5001475;28;20118;-47
2022/01/16 00:43:45;;;;;;;39.88;15.85;;;;;;;-0.55;95.60;96368.81;5012075;28;20046;-48
2022/01/16 00:46:12;;;;;;;45.85;16.83;;;;;;;-0.40;94.27;96386.75;5009788;28;20050;-49
2022/01/16 00:48:39;;;;;;;42.42;16.33;;;;;;;-0.76;96.00;96373.88;5000208;28;20064;-47
2022/01/16 00:51:07;;;;;;;43.85;17.02;;;;;;;-0.52;95.08;96347.84;5010271;28;20045;-46
2022/01/16 00:53:34;;;;;;;43.42;16.35;;;;;;;-0.66;95.15;96364.44;5002901;28;20042;-47
2022/01/16 00:56:01;;;;;;;49.50;18.85;;;;;;;-0.61;94.64;96359.19;5010142;28;20050;-48
2022/01/16 00:58:28;;;;;;;40.88;16.17;;;;;;;-0.57;94.57;96362.94;5007217;28;20053;-48
2022/01/16 01:00:54;;;;;;;37.88;14.38;;;;;;;-0.73;95.58;96362.75;5001306;28;20122;-50
2022/01/16 01:03:22;;;;;;;43.88;15.90;;;;;;;-0.46;94.35;96364.63;5013789;28;20050;-45
2022/01/16 01:05:49;;;;;;;34.40;13.68;;;;;;;-0.46;94.79;96372.59;5002295;28;20046;-44
2022/01/16 01:08:17;;;;;;;36.28;14.13;;;;;;;-0.69;95.34;96399.47;5004052;28;20058;-45
2022/01/16 01:10:47;;;;;;;37.58;13.65;;;;;;;-0.35;94.01;96406.22;4995342;28;20042;-45
2022/01/16 01:13:23;;;;;;;35.65;15.15;;;;;;;-0.42;94.67;96408.28;4996625;28;20671;-45
2022/01/16 01:15:58;;;;;;;37.20;14.20;;;;;;;-0.43;93.65;96404.00;4981928;28;20141;-44
2022/01/16 01:18:26;;;;;;;45.28;16.52;;;;;;;-0.48;93.56;96348.94;5009937;28;20100;-47
2022/01/16 01:20:54;;;;;;;41.30;14.57;;;;;;;-0.76;93.71;96315.44;5014215;28;20050;-45
2022/01/16 01:23:21;;;;;;;38.38;14.27;;;;;;;-1.87;100.00;96315.69;5011452;28;20116;-44
2022/01/16 01:25:48;;;;;;;38.05;14.23;;;;;;;-0.87;97.14;96313.75;5014544;28;20046;-43
2022/01/16 01:28:15;;;;;;;35.53;13.23;;;;;;;-0.84;95.37;96307.94;5014961;28;20052;-44
2022/01/16 01:30:46;;;;;;;41.05;15.23;;;;;;;-0.88;97.03;96293.53;5014867;28;20042;-45
2022/01/16 01:33:15;;;;;;;37.67;14.57;;;;;;;-0.50;94.23;96334.28;5012543;28;20046;-46
2022/01/16 01:35:42;;;;;;;41.08;14.70;;;;;;;-0.65;94.36;96353.56;5009082;28;20515;-49
2022/01/16 01:38:11;;;;;;;37.35;14.45;;;;;;;-0.61;94.33;96375.94;5007052;28;20048;-47
2022/01/16 01:40:39;;;;;;;40.38;14.43;;;;;;;-0.76;94.53;96373.88;5005837;28;20046;-48
2022/01/16 01:51:25;;;;;;;44.92;16.02;;;;;;;-0.74;94.15;96369.16;5010505;28;20419;-47
2022/01/16 01:53:55;;;;;;;40.47;14.32;;;;;;;-0.73;94.47;96341.50;5009552;28;20064;-46
2022/01/16 01:56:24;;;;;;;40.50;14.13;;;;;;;-0.73;94.39;96352.13;5016735;28;20483;-50
2022/01/16 01:58:54;;;;;;;42.13;14.23;;;;;;;-0.64;94.28;96367.66;5003528;28;20044;-49
2022/01/16 02:01:22;;;;;;;43.22;15.82;;;;;;;-0.64;93.72;96363.13;5006407;28;20040;-49
2022/01/16 02:03:50;;;;;;;45.75;16.15;;;;;;;-0.70;94.01;96377.41;5012164;28;20045;-46
2022/01/16 02:06:29;;;;;;;42.45;16.27;;;;;;;-0.59;94.07;96388.94;5009042;28;20052;-47
2022/01/16 02:08:59;;;;;;;41.35;15.10;;;;;;;-0.49;93.33;96378.41;5010575;28;20048;-46
2022/01/16 02:11:29;;;;;;;39.70;14.27;;;;;;;-0.49;93.29;96389.88;5005138;28;20492;-48
2022/01/16 02:14:05;;;;;;;43.88;15.65;;;;;;;-0.46;92.63;96401.84;5012505;28;20045;-46
2022/01/16 02:28:07;;;;;;;36.50;14.35;;;;;;;-0.86;94.05;96368.47;5007883;28;20044;-48
2022/01/16 02:34:32;;;;;;;32.50;13.02;;;;;;;-0.61;93.56;96370.59;5012101;28;20075;-46
2022/01/16 02:36:29;;;;;;;36.85;14.20;;;;;;;-0.58;92.89;96377.28;5012455;28;20048;-49
2022/01/16 02:39:06;;;;;;;33.38;12.70;;;;;;;-1.13;95.40;96357.00;5009824;28;20118;-49
2022/01/16 02:41:33;;;;;;;30.30;12.73;;;;;;;-1.94;100.00;96344.25;4996343;28;20048;-46
2022/01/16 02:44:10;;;;;;;35.15;14.35;;;;;;;-1.24;98.58;96340.94;5011503;28;20046;-47
2022/01/16 02:46:39;;;;;;;33.17;14.02;;;;;;;-1.04;96.86;96351.00;5011923;28;20129;-46
2022/01/16 02:49:24;;;;;;;36.85;14.85;;;;;;;-0.67;95.21;96341.56;5012044;28;20076;-47
2022/01/16 02:51:55;;;;;;;35.33;13.18;;;;;;;-0.89;94.71;96336.28;5002437;28;20038;-48
2022/01/16 02:54:22;;;;;;;33.38;12.93;;;;;;;-0.96;95.26;96341.78;5008892;28;20054;-47
2022/01/16 02:56:49;;;;;;;40.90;15.32;;;;;;;-0.78;93.87;96327.38;5012095;28;20041;-48
2022/01/16 02:59:17;;;;;;;36.08;14.40;;;;;;;-1.61;97.83;96330.13;5011343;28;20041;-45
2022/01/16 03:01:45;;;;;;;41.30;14.57;;;;;;;-1.32;99.26;96332.63;5008577;28;20063;-47
2022/01/16 03:04:12;;;;;;;37.67;13.20;;;;;;;-1.15;97.07;96320.06;5010586;28;20050;-46
2022/01/16 03:06:39;;;;;;;36.00;13.00;;;;;;;-0.83;95.87;96325.47;5011156;28;20052;-48
2022/01/16 03:09:08;;;;;;;41.53;14.27;;;;;;;-1.15;96.41;96324.59;5011879;28;20060;-48
2022/01/16 03:11:43;;;;;;;38.72;15.05;;;;;;;-1.23;96.61;96310.69;4999139;28;20076;-47
2022/01/16 03:14:12;;;;;;;40.63;14.10;;;;;;;-1.02;96.03;96318.88;5001151;28;20046;-48
2022/01/16 03:16:46;;;;;;;37.08;14.00;;;;;;;-0.79;94.62;96307.97;5012433;28;20048;-47
2022/01/16 03:22:03;;;;;;;35.72;13.82;;;;;;;-0.72;94.48;96311.22;5005016;28;20125;-46
2022/01/16 03:24:34;;;;;;;43.05;13.23;;;;;;;-0.59;94.34;96314.53;5010983;28;20389;-47
2022/01/16 03:27:13;;;;;;;38.95;13.88;;;;;;;-0.60;95.00;96307.63;5009524;28;20133;-47
2022/01/16 03:29:43;;;;;;;38.75;14.48;;;;;;;-1.69;99.35;96302.16;5007422;28;20062;-47
2022/01/16 03:32:13;;;;;;;33.25;13.25;;;;;;;-1.56;100.00;96295.69;5002923;28;20038;-48
2022/01/16 03:34:40;;;;;;;41.42;14.90;;;;;;;-1.47;100.00;96298.72;5011517;28;20046;-48
2022/01/16 03:37:07;;;;;;;39.50;13.68;;;;;;;-1.06;98.28;96294.69;5011179;28;20578;-47
2022/01/16 03:39:35;;;;;;;37.55;13.27;;;;;;;-0.97;96.97;96295.84;5003732;28;20117;-51
2022/01/16 03:42:02;;;;;;;39.65;13.75;;;;;;;-1.05;96.43;96292.81;5011135;28;20042;-47
2022/01/16 03:44:29;;;;;;;41.65;13.95;;;;;;;-1.05;96.79;96284.84;5011579;28;20088;-46
2022/01/16 03:46:57;;;;;;;42.08;14.45;;;;;;;-1.06;97.04;96285.91;5010088;28;20171;-49
2022/01/16 03:49:27;;;;;;;40.10;14.00;;;;;;;-0.97;96.81;96279.91;5001051;28;20125;-49
2022/01/16 03:51:55;;;;;;;47.17;15.40;;;;;;;-1.38;98.29;96276.00;5008766;28;20083;-46
2022/01/16 03:54:26;;;;;;;37.47;14.30;;;;;;;-1.12;98.22;96282.41;5011374;28;20052;-47
2022/01/16 03:56:54;;;;;;;38.30;14.05;;;;;;;-0.69;96.29;96285.22;5010148;28;20069;-45
2022/01/16 03:59:22;;;;;;;42.03;14.38;;;;;;;-0.92;98.05;96292.44;5011271;28;20044;-46
2022/01/16 04:01:49;;;;;;;43.83;14.63;;;;;;;-1.18;97.71;96288.69;5011148;28;20236;-47
2022/01/16 04:04:16;;;;;;;44.30;14.70;;;;;;;-1.69;100.00;96296.84;5002256;28;20048;-51
2022/01/16 04:06:43;;;;;;;41.60;14.63;;;;;;;-1.77;100.00;96304.44;5011275;28;20698;-45
2022/01/16 04:09:10;;;;;;;37.67;13.50;;;;;;;-2.07;100.00;96304.81;5011176;28;20128;-46
2022/01/16 04:11:44;;;;;;;38.97;14.02;;;;;;;-2.22;100.00;96306.16;5005411;28;20065;-45
2022/01/16 04:14:16;;;;;;;43.33;15.43;;;;;;;-1.41;100.00;96308.34;5010283;28;20050;-48
2022/01/16 04:16:43;;;;;;;39.67;14.52;;;;;;;-1.26;100.00;96295.25;5010910;28;20046;-49
2022/01/16 04:19:10;;;;;;;44.13;15.38;;;;;;;-1.21;99.64;96313.88;5007881;28;20077;-45
2022/01/16 04:21:40;;;;;;;42.10;15.60;;;;;;;-1.16;99.92;96315.81;5003492;28;20392;-46
2022/01/16 04:24:07;;;;;;;43.35;14.70;;;;;;;-2.04;100.00;96312.28;5010918;28;20065;-48
2022/01/16 04:26:34;;;;;;;43.10;15.32;;;;;;;-1.87;100.00;96318.34;5010760;28;20524;-45
2022/01/16 04:29:01;;;;;;;39.60;15.15;;;;;;;-2.06;100.00;96315.16;5011204;28;20068;-47
2022/01/16 04:31:28;;;;;;;44.38;15.52;;;;;;;-1.48;100.00;96310.38;5009863;28;20043;-48
2022/01/16 04:33:55;;;;;;;40.22;13.93;;;;;;;-1.35;100.00;96311.88;5010344;28;20046;-46
2022/01/16 04:36:22;;;;;;;40.63;16.33;;;;;;;-1.63;100.00;96312.81;5010796;28;20046;-47
2022/01/16 04:38:51;;;;;;;40.22;16.25;;;;;;;-1.49;100.00;96322.06;5010941;28;20117;-47
2022/01/16 04:44:05;;;;;;;41.13;15.20;;;;;;;-1.13;100.00;96325.16;5011216;28;20058;-48
2022/01/16 04:46:34;;;;;;;36.95;13.05;;;;;;;-2.12;100.00;96302.84;5011081;28;20042;-45
2022/01/16 04:49:03;;;;;;;41.75;15.88;;;;;;;-1.63;100.00;96310.19;5010219;28;20048;-45
2022/01/16 04:51:31;;;;;;;37.25;14.38;;;;;;;-1.86;100.00;96317.28;5010204;28;20034;-44
2022/01/16 04:53:58;;;;;;;44.75;16.63;;;;;;;-1.59;100.00;96303.31;5010523;28;20053;-45
2022/01/16 04:56:25;;;;;;;43.55;15.70;;;;;;;-1.75;100.00;96312.94;5010218;28;20046;-49
2022/01/16 04:58:52;;;;;;;41.33;17.35;;;;;;;-1.45;100.00;96312.53;5011101;28;20165;-46
2022/01/16 05:01:19;;;;;;;37.95;16.45;;;;;;;-1.98;100.00;96316.56;5006710;28;20046;-46
2022/01/16 05:03:46;;;;;;;34.72;15.70;;;;;;;-1.60;100.00;96304.38;5010667;28;20154;-45
2022/01/16 05:06:13;;;;;;;42.38;16.48;;;;;;;-1.33;100.00;96318.53;5010404;28;20050;-45
2022/01/16 05:08:40;;;;;;;44.55;19.00;;;;;;;-1.25;98.28;96326.06;5010913;28;20046;-44
2022/01/16 05:11:09;;;;;;;39.03;17.80;;;;;;;-1.49;99.66;96324.72;5002192;28;20277;-44
2022/01/16 05:18:51;;;;;;;42.20;18.95;;;;;;;-1.89;99.23;96326.53;5011162;28;20065;-51
2022/01/16 05:21:18;;;;;;;40.58;18.88;;;;;;;-1.90;100.00;96330.25;5014043;28;20503;-51
2022/01/16 05:23:45;;;;;;;37.90;17.42;;;;;;;-1.76;99.33;96321.94;4997541;28;20046;-51
2022/01/16 05:26:13;;;;;;;42.83;20.15;;;;;;;-1.55;98.99;96315.88;5013503;28;20069;-52
2022/01/16 05:28:40;;;;;;;37.35;18.63;;;;;;;-1.47;98.66;96320.72;5014039;28;20045;-47
2022/01/16 05:31:07;;;;;;;42.45;21.13;;;;;;;-1.36;97.47;96316.38;5010826;28;20056;-44
2022/01/16 05:33:34;;;;;;;42.58;19.98;;;;;;;-1.94;100.00;96321.16;5013735;28;20041;-48
2022/01/16 05:36:01;;;;;;;40.03;18.75;;;;;;;-1.55;100.00;96315.88;5013673;28;20048;-46
2022/01/16 05:38:28;;;;;;;38.95;19.23;;;;;;;-1.86;99.67;96324.44;5008649;28;20065;-46
2022/01/16 05:40:55;;;;;;;37.33;19.00;;;;;;;-1.77;99.83;96331.75;5000718;28;20100;-45
2022/01/16 05:43:22;;;;;;;39.53;19.95;;;;;;;-1.75;98.51;96324.38;5013450;28;20049;-49
2022/01/16 05:45:49;;;;;;;36.85;21.92;;;;;;;-1.89;99.54;96328.38;5013588;28;20050;-49
2022/01/16 05:48:16;;;;;;;38.85;20.77;;;;;;;-1.69;98.42;96347.25;5007418;28;20224;-46
2022/01/16 05:50:43;;;;;;;39.75;19.38;;;;;;;-1.64;97.78;96343.88;5013386;28;20057;-48
2022/01/16 05:53:10;;;;;;;43.50;22.08;;;;;;;-1.71;97.39;96338.72;5002643;28;20116;-48
2022/01/16 05:55:37;;;;;;;43.10;24.52;;;;;;;-1.98;98.51;96343.09;5012877;28;20049;-48
2022/01/16 05:58:06;;;;;;;44.60;23.88;;;;;;;-1.79;98.12;96349.75;5012283;28;20455;-52
2022/01/16 06:00:35;;;;;;;39.83;20.95;;;;;;;-1.92;98.60;96356.22;5013063;28;20427;-47
2022/01/16 06:03:02;;;;;;;41.33;21.58;;;;;;;-1.85;98.28;96360.53;5005604;28;20077;-48
2022/01/16 06:05:29;;;;;;;40.70;21.75;;;;;;;-1.92;98.40;96356.22;5011425;28;20447;-48
2022/01/16 06:08:00;;;;;;;41.60;21.83;;;;;;;-1.91;98.36;96365.78;5013345;28;20046;-48
2022/01/16 06:10:27;;;;;;;42.95;21.48;;;;;;;-1.81;97.78;96367.78;5010059;28;20050;-48
2022/01/16 06:12:54;;;;;;;42.80;21.42;;;;;;;-1.81;97.36;96367.78;5013423;28;20045;-48
2022/01/16 06:15:22;;;;;;;44.50;23.45;;;;;;;-1.63;96.57;96369.34;5012515;28;20050;-50
2022/01/16 06:17:50;;;;;;;39.80;22.83;;;;;;;-1.71;96.68;96364.47;5012934;28;20065;-51
2022/01/16 06:20:17;;;;;;;39.47;21.20;;;;;;;-1.72;96.92;96360.22;5008708;28;20389;-51
2022/01/16 06:22:45;;;;;;;40.40;21.35;;;;;;;-1.88;98.28;96375.09;5003796;28;20047;-49
2022/01/16 06:25:13;;;;;;;41.50;21.85;;;;;;;-1.48;96.22;96371.41;5012613;28;20064;-49
2022/01/16 06:27:41;;;;;;;37.78;21.90;;;;;;;-1.57;96.25;96370.22;5012185;28;20078;-47
2022/01/16 06:30:11;;;;;;;39.53;21.30;;;;;;;-1.15;94.58;96385.66;5012705;28;20061;-49
2022/01/16 06:32:38;;;;;;;42.95;21.52;;;;;;;-1.36;94.64;96388.03;4998388;28;20058;-51
2022/01/16 06:35:06;;;;;;;40.70;21.33;;;;;;;-1.32;94.21;96378.53;5010438;28;20049;-50
2022/01/16 06:37:34;;;;;;;40.78;21.50;;;;;;;-1.83;97.00;96380.47;5012325;28;20054;-49
2022/01/16 06:40:03;;;;;;;41.17;22.13;;;;;;;-1.64;97.12;96378.34;5011805;28;20038;-48
2022/01/16 06:42:30;;;;;;;38.28;20.50;;;;;;;-2.22;99.09;96376.94;5002215;28;20089;-49
2022/01/16 06:44:57;;;;;;;40.47;22.08;;;;;;;-2.11;99.57;96368.09;5012175;28;20056;-47
2022/01/16 06:47:24;;;;;;;38.67;22.33;;;;;;;-1.49;97.25;96369.81;5012297;28;20053;-47
2022/01/16 06:49:51;;;;;;;41.25;21.20;;;;;;;-1.30;94.88;96379.09;5009488;28;20038;-48
2022/01/16 06:52:18;;;;;;;40.53;21.17;;;;;;;-1.54;95.65;96383.81;5006901;28;20065;-48
2022/01/16 06:54:44;;;;;;;35.95;21.02;;;;;;;-1.30;95.01;96389.72;5011791;28;20054;-53
2022/01/16 06:57:12;;;;;;;41.60;23.48;;;;;;;-1.39;95.37;96385.06;5011696;28;20060;-49
2022/01/16 06:59:39;;;;;;;45.67;22.52;;;;;;;-1.69;96.50;96376.44;4991460;28;20151;-47
2022/01/16 07:02:07;;;;;;;41.08;22.15;;;;;;;-1.53;95.64;96384.59;5004588;28;20060;-48
2022/01/16 07:04:34;;;;;;;39.55;22.38;;;;;;;-1.96;98.53;96394.84;5011272;28;20053;-48
2022/01/16 07:07:01;;;;;;;41.55;23.55;;;;;;;-1.55;96.12;96392.81;5010493;28;20120;-51
2022/01/16 07:09:28;;;;;;;42.85;23.20;;;;;;;-1.78;96.41;96396.47;5006972;28;20129;-49
2022/01/16 07:11:55;;;;;;;42.75;22.70;;;;;;;-1.54;96.12;96409.53;5011691;28;20041;-49
2022/01/16 07:14:22;;;;;;;40.50;21.52;;;;;;;-1.65;95.35;96397.97;5011504;28;20052;-46
2022/01/16 07:16:48;;;;;;;44.83;24.15;;;;;;;-1.46;94.83;96406.50;5009627;28;20053;-49
2022/01/16 07:19:15;;;;;;;40.55;23.27;;;;;;;-1.46;94.60;96395.88;5005234;28;20728;-52
2022/01/16 07:21:42;;;;;;;41.75;21.80;;;;;;;-1.84;97.50;96399.28;5009918;28;20065;-48
2022/01/16 07:24:15;;;;;;;41.08;22.17;;;;;;;-2.20;97.94;96380.94;5003889;28;20046;-51
2022/01/16 07:26:45;;;;;;;42.25;22.38;;;;;;;-2.28;99.41;96389.28;5011169;28;20091;-51
2022/01/16 07:29:12;;;;;;;40.75;22.23;;;;;;;-1.97;98.33;96397.75;5005966;28;20132;-52
2022/01/16 07:31:39;;;;;;;45.58;24.55;;;;;;;-1.60;97.04;96389.28;5007544;28;20038;-46
2022/01/16 07:34:07;;;;;;;41.28;22.33;;;;;;;-1.43;95.84;96398.00;5009322;28;20392;-48
2022/01/16 07:36:34;;;;;;;42.28;23.60;;;;;;;-1.49;94.51;96397.16;5010990;28;20525;-46
2022/01/16 07:39:03;;;;;;;47.15;23.55;;;;;;;-2.19;97.80;96424.16;5011545;28;20124;-50
2022/01/16 07:41:29;;;;;;;44.92;22.73;;;;;;;-2.28;98.97;96423.72;5004509;28;20558;-46
2022/01/16 07:43:56;;;;;;;44.13;24.55;;;;;;;-2.09;99.46;96405.78;5004756;28;20052;-46
2022/01/16 07:46:24;;;;;;;45.88;24.02;;;;;;;-2.14;98.36;96417.09;5011139;28;20069;-47
2022/01/16 07:48:51;;;;;;;45.90;23.20;;;;;;;-2.32;99.21;96419.97;5010456;28;20053;-45
2022/01/16 07:51:18;;;;;;;39.47;21.77;;;;;;;-2.49;100.00;96427.09;5009993;28;20491;-47
2022/01/16 07:53:45;;;;;;;41.58;23.15;;;;;;;-1.76;98.40;96425.38;4994549;28;20046;-45
2022/01/16 07:56:13;;;;;;;43.83;23.33;;;;;;;-1.92;98.49;96434.94;5011117;28;20050;-49
2022/01/16 07:58:42;;;;;;;43.28;22.50;;;;;;;-1.97;96.85;96451.59;5011498;28;20399;-48
2022/01/16 08:01:09;;;;;;;45.85;24.02;;;;;;;-1.52;95.27;96447.25;5005223;28;20050;-47
2022/01/16 08:03:36;;;;;;;43.88;23.38;;;;;;;-1.37;94.39;96455.44;5010641;28;20107;-46
2022/01/16 08:06:03;;;;;;;49.55;23.90;;;;;;;-1.92;96.46;96464.13;5011526;28;20129;-45
2022/01/16 08:08:30;;;;;;;42.92;22.85;;;;;;;-1.32;93.91;96455.50;5010645;28;20422;-47
2022/01/16 08:10:57;;;;;;;41.80;23.17;;;;;;;-1.29;94.62;96459.53;5008110;28;20052;-45
2022/01/16 08:13:24;;;;;;;43.17;22.77;;;;;;;-1.22;94.42;96466.28;5011865;28;20038;-46
2022/01/16 08:15:51;;;;;;;43.70;23.83;;;;;;;-1.40;94.76;96447.94;5012031;28;20049;-47
2022/01/16 08:18:18;;;;;;;43.15;23.35;;;;;;;-0.91;93.04;96437.50;5012102;28;20060;-47
2022/01/16 08:20:45;;;;;;;41.95;23.15;;;;;;;-1.01;92.50;96440.00;5010063;28;20422;-46
2022/01/16 08:23:12;;;;;;;41.08;22.40;;;;;;;-1.27;93.04;96444.97;5004839;28;20240;-46
2022/01/16 08:25:39;;;;;;;44.63;22.92;;;;;;;-1.22;94.16;96437.06;5010484;28;20077;-48
2022/01/16 08:28:07;;;;;;;38.67;20.55;;;;;;;-1.17;92.84;96452.25;5011076;28;20073;-45
2022/01/16 08:30:33;;;;;;;44.15;22.73;;;;;;;-1.72;95.67;96445.09;5010267;28;20072;-49
2022/01/16 08:33:00;;;;;;;41.72;22.90;;;;;;;-1.58;96.05;96442.91;5005430;28;20073;-45
2022/01/16 08:35:27;;;;;;;41.92;22.88;;;;;;;-1.48;95.19;96445.72;5010852;28;20046;-46
2022/01/16 08:37:54;;;;;;;34.28;20.40;;;;;;;-1.14;94.14;96441.16;5011082;28;20076;-45
2022/01/16 08:40:21;;;;;;;37.47;20.27;;;;;;;-0.82;91.37;96445.81;5010642;28;20054;-48
2022/01/16 08:42:48;;;;;;;39.42;21.67;;;;;;;-0.73;91.06;96441.69;5007060;28;20407;-47
2022/01/16 08:45:16;;;;;;;33.83;19.35;;;;;;;-0.57;89.87;96437.34;5011300;28;20046;-47
2022/01/16 08:47:43;;;;;;;34.13;19.20;;;;;;;-0.52;88.94;96442.69;5014667;28;20039;-46
2022/01/16 08:50:12;;;;;;;34.13;18.50;;;;;;;-0.75;88.72;96431.31;5007946;28;20583;-49
2022/01/16 08:52:39;;;;;;;33.22;18.73;;;;;;;-0.55;88.33;96421.97;5004526;28;20042;-46
2022/01/16 08:55:10;;;;;;;35.45;19.08;;;;;;;-0.69;89.63;96431.34;5015405;28;20042;-44
2022/01/16 08:57:38;;;;;;;33.00;18.58;;;;;;;-0.42;88.15;96426.88;5014636;28;20041;-47
2022/01/16 09:00:07;;;;;;;34.42;19.05;;;;;;;-0.42;88.08;96434.88;5013433;28;20046;-44
2022/01/16 09:02:34;;;;;;;30.63;17.80;;;;;;;-0.33;87.88;96436.00;5003373;28;20038;-50
2022/01/16 09:05:03;;;;;;;31.23;17.55;;;;;;;-0.51;88.74;96439.81;5014262;28;20045;-49
2022/01/16 09:07:30;;;;;;;32.25;16.95;;;;;;;-0.73;88.10;96442.47;5014590;28;20046;-46
2022/01/16 09:09:59;;;;;;;30.30;18.02;;;;;;;-0.35;88.45;96447.97;5012017;28;20372;-44
2022/01/16 09:12:26;;;;;;;32.40;18.45;;;;;;;-0.53;88.58;96443.75;5001468;28;20050;-46
2022/01/16 09:14:53;;;;;;;32.65;18.33;;;;;;;-0.49;87.84;96443.03;5011780;28;20038;-45
2022/01/16 09:17:20;;;;;;;31.88;17.65;;;;;;;-0.48;86.98;96451.81;5014336;28;20042;-45
2022/01/16 09:19:51;;;;;;;32.60;17.75;;;;;;;-0.08;87.19;96443.44;5010959;28;20046;-45
2022/01/16 09:22:18;;;;;;;33.35;17.77;;;;;;;-0.20;86.18;96444.66;5007637;28;20035;-48
2022/01/16 09:24:45;;;;;;;30.80;16.40;;;;;;;-0.50;87.78;96446.72;5008541;28;20375;-45
2022/01/16 09:27:12;;;;;;;32.75;18.05;;;;;;;-0.26;87.32;96452.59;5013950;28;20053;-46
2022/01/16 09:29:39;;;;;;;30.27;17.67;;;;;;;-0.17;86.95;96447.59;5013575;28;20042;-47
2022/01/16 09:32:06;;;;;;;30.08;16.63;;;;;;;-0.28;86.33;96448.56;5009705;28;20049;-47
2022/01/16 09:34:33;;;;;;;34.80;18.02;;;;;;;-0.16;86.99;96456.38;5013418;28;20046;-45
2022/01/16 09:37:04;;;;;;;30.85;17.02;;;;;;;-0.13;86.58;96447.91;5013851;28;20053;-45
2022/01/16 09:39:31;;;;;;;28.55;17.17;;;;;;;0.33;85.06;96448.34;5000501;28;20466;-47
2022/01/16 09:41:59;;;;;;;33.30;18.52;;;;;;;0.25;85.73;96451.44;5009694;28;20402;-48
2022/01/16 09:44:28;;;;;;;30.10;16.27;;;;;;;-0.01;85.67;96454.66;5006954;28;20038;-45
2022/01/16 09:46:57;;;;;;;28.98;17.35;;;;;;;0.16;85.60;96459.06;5002300;28;21979;-50
2022/01/16 09:49:26;;;;;;;32.17;17.58;;;;;;;0.17;84.71;96458.84;5002517;28;20137;-44
2022/01/16 09:51:53;;;;;;;30.05;17.65;;;;;;;0.43;84.27;96451.06;4998878;28;20074;-45
2022/01/16 09:54:21;;;;;;;31.50;16.58;;;;;;;0.44;84.12;96460.66;5013592;28;20050;-45
2022/01/16 09:56:49;;;;;;;29.50;16.33;;;;;;;0.52;83.29;96438.91;5011514;28;20033;-46
2022/01/16 09:59:17;;;;;;;31.15;17.13;;;;;;;0.63;83.57;96451.22;5011034;28;20053;-47
2022/01/16 10:01:44;;;;;;;28.35;16.25;;;;;;;0.66;82.61;96450.69;4995845;28;20133;-46
2022/01/16 10:04:38;;;;;;;28.20;15.88;;;;;;;0.89;81.80;96454.03;5011986;28;20053;-48
2022/01/16 10:07:06;;;;;;;;;;;;;;;1.24;80.93;96453.44;5004705;28;20038;-43
2022/01/16 10:09:38;;;;;;;24.75;14.20;;;;;;;1.17;80.69;96455.53;5012710;28;19952;-48
2022/01/16 10:12:17;;;;;;;23.77;13.77;;;;;;;1.13;77.87;96449.91;5012217;28;20132;-44
2022/01/16 10:14:48;;;;;;;24.88;14.73;;;;;;;1.35;79.04;96455.06;5012413;28;20200;-46
2022/01/16 10:17:25;;;;;;;24.00;13.40;;;;;;;1.28;77.25;96435.84;5013266;28;20462;-46
2022/01/16 10:20:08;;;;;;;25.02;13.15;;;;;;;1.35;76.38;96444.41;5012248;28;20046;-46
2022/01/16 10:22:43;;;;;;;20.67;13.13;;;;;;;1.51;77.01;96439.94;5007203;28;20118;-47
2022/01/16 10:25:11;;;;;;;20.55;11.35;;;;;;;1.52;74.83;96449.53;5006229;28;20050;-47
2022/01/16 10:27:41;;;;;;;20.75;11.88;;;;;;;1.67;74.47;96432.78;5011051;28;20065;-49
2022/01/16 10:30:12;;;;;;;20.60;11.77;;;;;;;1.81;74.82;96435.75;5002851;28;20504;-47
2022/01/16 10:32:44;;;;;;;22.25;12.60;;;;;;;1.81;74.43;96436.53;5002859;28;20049;-45
2022/01/16 10:35:23;;;;;;;19.45;11.65;;;;;;;1.84;75.32;96435.22;5008248;28;20124;-46
2022/01/16 10:37:54;;;;;;;18.75;10.85;;;;;;;1.90;74.13;96438.72;5006850;28;20065;-50
2022/01/16 10:40:22;;;;;;;17.95;10.32;;;;;;;1.88;73.13;96436.28;5008789;28;20053;-51
2022/01/16 10:42:55;;;;;;;19.92;11.10;;;;;;;2.06;74.34;96437.66;5010286;28;20121;-48
2022/01/16 10:45:28;;;;;;;18.98;11.18;;;;;;;2.10;73.31;96436.84;5011409;28;20056;-47
2022/01/16 10:47:57;;;;;;;20.63;11.57;;;;;;;2.16;74.86;96444.88;5011255;28;20088;-51
2022/01/16 10:50:45;;;;;;;18.95;11.32;;;;;;;2.13;73.73;96443.53;5012517;28;20076;-46
2022/01/16 10:53:22;;;;;;;19.85;11.25;;;;;;;2.06;73.84;96441.13;5007921;28;20128;-47
2022/01/16 10:55:51;;;;;;;19.00;11.38;;;;;;;2.02;74.57;96445.41;5000805;28;20053;-52
2022/01/16 10:58:23;;;;;;;21.05;11.23;;;;;;;2.17;74.87;96443.81;5010474;28;20104;-49
2022/01/16 11:00:53;;;;;;;19.63;10.93;;;;;;;2.02;74.44;96448.06;5010196;28;20496;-48
2022/01/16 11:03:23;;;;;;;22.58;10.30;;;;;;;2.10;74.39;96458.22;4994269;28;20096;-52
2022/01/16 11:05:50;;;;;;;20.50;10.13;;;;;;;2.06;74.68;96454.47;5012065;28;20075;-50
2022/01/16 11:08:25;;;;;;;17.65;11.40;;;;;;;2.26;75.39;96447.56;5011138;28;20046;-51
2022/01/16 11:10:56;;;;;;;20.75;10.65;;;;;;;2.13;74.67;96456.88;5007988;28;20042;-49
2022/01/16 11:13:29;;;;;;;18.33;10.38;;;;;;;2.30;74.33;96454.75;5008900;28;20046;-51
2022/01/16 11:16:03;;;;;;;21.30;10.85;;;;;;;2.22;74.48;96449.97;5001556;28;20046;-49
2022/01/16 11:18:37;;;;;;;21.38;10.55;;;;;;;2.30;74.72;96448.63;5012046;28;20034;-48
2022/01/16 11:21:16;;;;;;;19.70;10.65;;;;;;;2.43;74.48;96450.75;5009513;28;20038;-51
2022/01/16 11:26:35;;;;;;;23.27;12.13;;;;;;;2.66;74.18;96456.63;5017412;28;20050;-46
2022/01/16 11:29:02;;;;;;;20.42;11.05;;;;;;;2.91;73.55;96466.50;5012904;28;20406;-44
2022/01/16 11:31:29;;;;;;;19.67;11.25;;;;;;;2.80;73.39;96463.03;5009191;28;20050;-45
2022/01/16 11:33:56;;;;;;;19.55;12.68;;;;;;;3.53;72.12;96459.88;5000235;28;20048;-50
2022/01/16 11:36:26;;;;;;;20.42;12.20;;;;;;;3.37;71.06;96445.78;5009503;28;20055;-49
2022/01/16 11:38:58;;;;;;;20.77;12.23;;;;;;;4.30;70.37;96452.25;5011581;28;20045;-48
2022/01/16 11:41:34;;;;;;;21.50;13.00;;;;;;;3.89;70.04;96449.81;5012261;28;20396;-47
2022/01/16 11:44:04;;;;;;;17.45;10.80;;;;;;;3.11;72.70;96460.28;5009864;28;20050;-49
2022/01/16 11:46:34;;;;;;;17.70;11.85;;;;;;;3.96;71.62;96453.00;5011685;28;20522;-46
2022/01/16 11:49:02;;;;;;;16.08;11.77;;;;;;;4.23;70.22;96446.41;5011909;28;20057;-47
2022/01/16 11:51:35;;;;;;;19.33;12.07;;;;;;;4.37;69.05;96452.72;5011856;28;20042;-48
2022/01/16 11:54:08;;;;;;;;;;;;;;;4.59;68.06;96459.53;5008687;28;20066;-49
2022/01/16 11:56:41;;;;;;;17.85;10.20;;;;;;;4.51;66.41;96449.41;5010766;28;19921;-49
2022/01/16 11:59:25;;;;;;;17.50;11.20;;;;;;;5.46;66.20;96451.44;5012015;28;20052;-47
2022/01/16 12:02:17;;;;;;;16.73;10.93;;;;;;;4.71;64.35;96457.25;5006581;28;20038;-46
2022/01/16 12:04:44;;;;;;;19.33;11.23;;;;;;;4.67;65.07;96456.22;5011429;28;20041;-49
2022/01/16 12:07:19;;;;;;;15.82;8.95;;;;;;;3.23;70.64;96476.84;5011759;28;20089;-48